Time;durP1;ratioP1;P1;durP2;ratioP2;P2;SDS_P1;SDS_P2;PMS_P1;PMS_P2;Temp;Humidity;BMP_temperature;BMP_pressure;BME280_temperature;BME280_humidity;BME280_pressure;Samples;Min_cycle;Max_cycle;Signal;HPM_P1;HPM_P2
2023/05/29 00:00:34;;;;;;;7.70;2.13;;;;;;;15.06;75.95;101514.38;5054252;28;20445;-74
2023/05/29 00:03:01;;;;;;;7.77;2.10;;;;;;;14.96;76.08;101500.97;5054113;28;20573;-73
2023/05/29 00:05:28;;;;;;;9.03;2.30;;;;;;;14.91;75.87;101512.00;5053082;28;20450;-74
2023/05/29 00:07:55;;;;;;;9.50;2.03;;;;;;;14.93;75.16;101509.78;5053636;28;21026;-73
2023/05/29 00:10:23;;;;;;;5.90;1.70;;;;;;;14.84;75.65;101509.69;5054124;28;20438;-73
2023/05/29 00:12:50;;;;;;;13.57;2.03;;;;;;;14.85;75.32;101506.66;5053720;28;20950;-74
2023/05/29 00:15:17;;;;;;;6.00;1.83;;;;;;;14.79;75.45;101513.34;5054042;28;20444;-74
2023/05/29 00:17:44;;;;;;;6.70;2.10;;;;;;;14.72;75.40;101520.31;5053902;28;20564;-74
2023/05/29 00:20:12;;;;;;;8.73;2.00;;;;;;;14.61;76.23;101517.03;5053890;28;20521;-73
2023/05/29 00:22:40;;;;;;;6.00;1.70;;;;;;;14.55;76.58;101518.22;5053820;28;20478;-74
2023/05/29 00:25:08;;;;;;;8.67;2.53;;;;;;;14.58;76.53;101518.44;5053831;28;20447;-74
2023/05/29 00:27:36;;;;;;;7.70;2.30;;;;;;;14.52;77.08;101518.81;5053365;28;20448;-74
2023/05/29 00:30:04;;;;;;;6.57;1.87;;;;;;;14.37;77.76;101514.47;5053755;28;20438;-74
2023/05/29 00:32:31;;;;;;;5.43;1.63;;;;;;;14.33;77.34;101514.25;5053408;28;20544;-74
2023/05/29 00:34:57;;;;;;;8.93;2.00;;;;;;;14.28;75.90;101524.47;5053645;28;20528;-74
2023/05/29 00:37:24;;;;;;;6.27;1.90;;;;;;;14.13;74.98;101520.13;5053538;28;20476;-74
2023/05/29 00:39:51;;;;;;;6.73;2.20;;;;;;;14.08;75.50;101525.69;5053631;28;20445;-74
2023/05/29 00:42:18;;;;;;;9.60;2.70;;;;;;;13.92;78.01;101519.69;5053520;28;20847;-74
2023/05/29 00:44:46;;;;;;;8.63;1.93;;;;;;;13.85;78.73;101514.63;5053205;28;20454;-73
2023/05/29 00:47:13;;;;;;;8.03;2.20;;;;;;;13.69;80.21;101507.06;5053172;28;20482;-73
2023/05/29 00:49:39;;;;;;;6.27;1.57;;;;;;;13.69;80.34;101517.94;5053090;28;20983;-74
2023/05/29 00:52:08;;;;;;;7.70;1.67;;;;;;;13.55;80.91;101515.19;5053408;28;20434;-74
2023/05/29 00:54:36;;;;;;;9.70;2.30;;;;;;;13.32;82.16;101514.97;5053382;28;20504;-74
2023/05/29 00:57:04;;;;;;;6.77;1.90;;;;;;;13.32;82.40;101523.16;5052974;28;20481;-74
2023/05/29 00:59:33;;;;;;;8.90;2.10;;;;;;;13.36;82.32;101520.66;5053283;28;20473;-74
2023/05/29 01:02:02;;;;;;;7.70;2.37;;;;;;;13.37;82.01;101528.53;5052989;28;20449;-74
2023/05/29 01:04:29;;;;;;;9.17;2.80;;;;;;;13.27;82.66;101525.16;5053190;28;20569;-75
2023/05/29 01:06:57;;;;;;;8.00;2.00;;;;;;;13.17;83.35;101517.13;5053196;28;20478;-74
2023/05/29 01:09:23;;;;;;;8.07;2.37;;;;;;;13.17;83.74;101523.34;5052773;28;20485;-75
2023/05/29 01:11:58;;;;;;;11.43;3.10;;;;;;;13.09;83.88;101529.47;5053134;28;20477;-74
2023/05/29 01:14:35;;;;;;;9.27;2.53;;;;;;;13.14;83.72;101527.47;5053228;28;20422;-75
2023/05/29 01:17:12;;;;;;;8.00;1.87;;;;;;;13.04;84.12;101521.38;5052788;28;20445;-74
2023/05/29 01:20:04;;;;;;;10.27;2.20;;;;;;;13.04;84.03;101530.34;5052721;28;20500;-74
2023/05/29 01:22:46;;;;;;;7.50;2.00;;;;;;;12.98;84.28;101531.53;5052709;28;20451;-75
2023/05/29 01:25:21;;;;;;;6.80;2.10;;;;;;;12.91;84.41;101530.28;5053044;28;20489;-74
2023/05/29 01:27:50;;;;;;;8.07;2.00;;;;;;;12.73;85.04;101529.97;5052966;28;20457;-74
2023/05/29 01:30:17;;;;;;;7.23;1.50;;;;;;;12.74;85.10;101528.03;5053161;28;20443;-75
2023/05/29 01:32:45;;;;;;;7.97;2.70;;;;;;;12.62;86.20;101528.50;5052711;28;20474;-75
2023/05/29 01:35:12;;;;;;;7.30;1.93;;;;;;;12.66;85.62;101525.97;5052963;28;20442;-73
2023/05/29 01:37:38;;;;;;;7.73;2.20;;;;;;;12.51;86.65;101527.78;5052869;28;20450;-74
2023/05/29 01:40:06;;;;;;;6.37;1.90;;;;;;;12.55;86.27;101522.59;5052602;28;20442;-74
2023/05/29 01:42:33;;;;;;;8.03;2.30;;;;;;;12.38;87.38;101529.31;5052763;28;20850;-73
2023/05/29 01:45:03;;;;;;;11.07;2.40;;;;;;;12.41;87.56;101529.84;5052781;28;20450;-73
2023/05/29 01:47:30;;;;;;;10.20;3.30;;;;;;;12.52;86.87;101525.88;5052498;28;20909;-74
2023/05/29 01:49:57;;;;;;;11.07;2.90;;;;;;;12.53;86.75;101535.66;5052774;28;20533;-73
2023/05/29 01:52:24;;;;;;;13.40;2.40;;;;;;;12.49;86.04;101532.72;5052502;28;20958;-73
2023/05/29 01:54:51;;;;;;;8.90;2.20;;;;;;;12.34;86.84;101528.25;5052783;28;20434;-73
2023/05/29 01:57:17;;;;;;;10.20;3.20;;;;;;;12.35;86.11;101532.63;5052385;28;20473;-74
2023/05/29 01:59:44;;;;;;;6.40;1.83;;;;;;;12.30;84.14;101531.84;5052694;28;20461;-74
2023/05/29 02:02:12;;;;;;;10.90;1.73;;;;;;;12.26;83.30;101534.34;5052369;28;20533;-74
2023/05/29 02:04:39;;;;;;;9.13;2.30;;;;;;;12.10;82.59;101535.59;5052568;28;20481;-74
2023/05/29 02:07:06;;;;;;;8.43;2.47;;;;;;;12.10;80.45;101538.31;5052630;28;20458;-74
2023/05/29 02:09:32;;;;;;;6.40;1.90;;;;;;;12.00;83.42;101538.44;5052235;28;20473;-73
2023/05/29 02:11:59;;;;;;;8.43;2.80;;;;;;;11.97;84.70;101545.22;5052633;28;20533;-73
2023/05/29 02:14:25;;;;;;;8.23;2.50;;;;;;;11.99;85.29;101544.94;5052184;28;20447;-73
2023/05/29 02:16:52;;;;;;;8.33;2.57;;;;;;;11.91;86.42;101548.28;5052250;28;20939;-72
2023/05/29 02:19:20;;;;;;;8.33;2.33;;;;;;;11.74;87.89;101544.06;5052488;28;20471;-73
2023/05/29 02:21:48;;;;;;;8.27;2.80;;;;;;;11.69;88.33;101549.53;5052491;28;20449;-73
2023/05/29 02:24:15;;;;;;;7.20;2.67;;;;;;;11.76;88.25;101550.00;5052117;28;20485;-73
2023/05/29 02:26:42;;;;;;;8.20;2.47;;;;;;;11.67;88.92;101545.47;5052493;28;20450;-73
2023/05/29 02:29:08;;;;;;;11.00;2.40;;;;;;;11.69;88.17;101548.72;5055027;28;20553;-73
2023/05/29 02:31:35;;;;;;;7.83;2.33;;;;;;;11.70;87.85;101547.63;5056015;28;20518;-73
2023/05/29 02:34:01;;;;;;;8.70;2.47;;;;;;;11.71;88.44;101547.34;5055638;28;20943;-72
2023/05/29 02:36:29;;;;;;;12.40;2.10;;;;;;;11.59;89.31;101544.19;5055558;28;20469;-72
2023/05/29 02:38:56;;;;;;;6.70;1.77;;;;;;;11.60;89.07;101545.81;5055816;28;20502;-73
2023/05/29 02:41:23;;;;;;;6.60;2.00;;;;;;;11.65;88.16;101544.97;5055822;28;20529;-73
2023/05/29 02:43:49;;;;;;;6.27;2.30;;;;;;;11.43;89.34;101550.84;5055679;28;20536;-73
2023/05/29 02:46:16;;;;;;;7.57;2.50;;;;;;;11.43;89.92;101548.13;5055759;28;20495;-73
2023/05/29 02:48:42;;;;;;;8.00;2.80;;;;;;;11.26;90.93;101546.59;5055668;28;20473;-73
2023/05/29 02:51:09;;;;;;;6.93;2.50;;;;;;;11.17;91.26;101545.59;5055698;28;20442;-73
2023/05/29 02:53:37;;;;;;;10.10;2.77;;;;;;;11.22;91.31;101556.41;5055555;28;20525;-72
2023/05/29 02:56:04;;;;;;;9.80;2.50;;;;;;;11.32;90.52;101558.22;5055543;28;20469;-71
2023/05/29 02:58:30;;;;;;;9.53;2.43;;;;;;;11.31;90.72;101552.00;5055141;28;20923;-72
2023/05/29 03:00:58;;;;;;;14.80;2.50;;;;;;;11.41;90.22;101563.84;5055518;28;20445;-73
2023/05/29 03:03:24;;;;;;;11.03;3.10;;;;;;;11.47;89.94;101557.31;5055289;28;20486;-73
2023/05/29 03:05:51;;;;;;;6.70;1.80;;;;;;;11.43;90.35;101567.91;5055343;28;20445;-73
2023/05/29 03:08:18;;;;;;;8.13;2.40;;;;;;;11.43;90.65;101556.25;5054978;28;20501;-73
2023/05/29 03:10:47;;;;;;;7.50;2.77;;;;;;;11.44;90.39;101566.00;5054957;28;21050;-73
2023/05/29 03:13:13;;;;;;;9.07;2.57;;;;;;;11.21;91.56;101565.63;5055224;28;20817;-73
2023/05/29 03:15:40;;;;;;;7.83;2.50;;;;;;;11.26;91.63;101557.47;5055147;28;20446;-73
2023/05/29 03:18:06;;;;;;;7.43;2.60;;;;;;;11.21;92.12;101565.63;5054706;28;21048;-73
2023/05/29 03:20:33;;;;;;;7.40;3.10;;;;;;;11.26;91.58;101562.88;5054800;28;20481;-73
2023/05/29 03:23:00;;;;;;;7.23;2.10;;;;;;;11.22;92.31;101564.53;5055036;28;20438;-73
2023/05/29 03:25:26;;;;;;;10.17;2.90;;;;;;;11.24;90.79;101562.34;5054926;28;20485;-73
2023/05/29 03:27:54;;;;;;;8.27;2.57;;;;;;;11.18;88.45;101560.75;5054891;28;20473;-73
2023/05/29 03:30:21;;;;;;;7.70;2.43;;;;;;;11.19;87.51;101565.09;5054884;28;20485;-73
2023/05/29 03:32:47;;;;;;;9.13;2.43;;;;;;;11.11;87.78;101565.66;5054815;28;20453;-73
2023/05/29 03:35:14;;;;;;;6.77;2.27;;;;;;;11.14;87.73;101564.31;5055528;28;20474;-77
2023/05/29 03:37:41;;;;;;;16.57;3.27;;;;;;;11.21;87.28;101564.81;5054852;28;20521;-72
2023/05/29 03:40:08;;;;;;;12.73;1.97;;;;;;;11.16;90.85;101571.09;5054219;28;20470;-72
2023/05/29 03:42:35;;;;;;;8.10;2.43;;;;;;;11.22;91.67;101566.44;5054334;28;20947;-72
2023/05/29 03:45:03;;;;;;;10.23;2.80;;;;;;;11.33;91.99;101568.81;5054183;28;20481;-72
2023/05/29 03:47:30;;;;;;;9.10;3.00;;;;;;;11.35;92.43;101569.31;5054448;28;20445;-72
2023/05/29 03:49:56;;;;;;;8.00;2.50;;;;;;;11.37;92.30;101574.47;5054477;28;20438;-72
2023/05/29 03:52:23;;;;;;;7.37;1.83;;;;;;;11.53;91.84;101572.47;5054162;28;20454;-71
2023/05/29 03:54:50;;;;;;;6.70;2.40;;;;;;;11.55;91.73;101575.69;5054064;28;20449;-72
2023/05/29 03:57:16;;;;;;;8.20;2.90;;;;;;;11.66;91.31;101582.66;5054327;28;20684;-72
2023/05/29 03:59:43;;;;;;;8.93;3.40;;;;;;;11.74;90.98;101573.91;5053925;28;20845;-72
2023/05/29 04:02:11;;;;;;;8.07;2.87;;;;;;;11.79;91.34;101571.16;5054224;28;20460;-72
2023/05/29 04:04:39;;;;;;;7.90;2.87;;;;;;;11.80;91.98;101578.19;5054155;28;20921;-72
2023/05/29 04:07:06;;;;;;;9.40;3.50;;;;;;;11.89;92.02;101574.91;5054157;28;20537;-72
2023/05/29 04:09:33;;;;;;;11.27;2.90;;;;;;;12.01;91.03;101578.06;5053672;28;20569;-72
2023/05/29 04:12:02;;;;;;;7.33;2.73;;;;;;;12.08;91.19;101578.53;5053778;28;20532;-72
2023/05/29 04:14:28;;;;;;;11.07;3.03;;;;;;;12.17;90.91;101582.22;5054007;28;20528;-72
2023/05/29 04:16:55;;;;;;;7.90;2.73;;;;;;;12.23;90.73;101580.28;5053975;28;20474;-72
2023/05/29 04:19:23;;;;;;;12.37;2.80;;;;;;;12.29;90.55;101579.13;5053940;28;20872;-71
2023/05/29 04:21:50;;;;;;;12.03;3.37;;;;;;;12.43;89.86;101590.13;5053635;28;20449;-72
2023/05/29 04:24:17;;;;;;;8.43;3.90;;;;;;;12.63;89.32;101592.63;5053549;28;20481;-73
2023/05/29 04:26:44;;;;;;;7.90;3.13;;;;;;;12.75;88.83;101593.03;5053827;28;20469;-74
2023/05/29 04:29:12;;;;;;;8.03;3.20;;;;;;;12.93;88.12;101598.78;5053725;28;20553;-73
2023/05/29 04:31:40;;;;;;;7.77;2.73;;;;;;;12.88;88.29;101594.19;5053745;28;20446;-74
2023/05/29 04:34:06;;;;;;;11.10;3.30;;;;;;;12.99;87.62;101597.63;5053705;28;20439;-74
2023/05/29 04:36:38;;;;;;;9.90;2.60;;;;;;;13.08;86.78;101602.09;5053688;28;20525;-74
2023/05/29 04:39:05;;;;;;;10.67;2.67;;;;;;;13.20;86.74;101598.97;5053604;28;20516;-74
2023/05/29 04:41:31;;;;;;;8.20;2.50;;;;;;;13.30;86.17;101589.88;5053264;28;20529;-73
2023/05/29 04:43:58;;;;;;;8.43;2.77;;;;;;;13.35;85.84;101587.88;5053435;28;20577;-74
2023/05/29 04:46:26;;;;;;;9.13;2.80;;;;;;;13.46;85.39;101585.81;5053539;28;20447;-73
2023/05/29 04:48:53;;;;;;;7.07;2.60;;;;;;;13.49;85.38;101593.38;5053131;28;21037;-73
2023/05/29 04:51:21;;;;;;;9.83;2.90;;;;;;;13.60;85.25;101597.56;5052483;28;20445;-74
2023/05/29 04:53:49;;;;;;;8.03;2.70;;;;;;;13.63;84.33;101602.44;5053418;28;20505;-73
2023/05/29 04:56:16;;;;;;;10.50;2.87;;;;;;;13.71;83.47;101592.75;5053341;28;20537;-73
2023/05/29 04:58:44;;;;;;;9.60;2.90;;;;;;;13.72;82.64;101599.81;5053271;28;20473;-73
2023/05/29 05:01:14;;;;;;;6.23;2.20;;;;;;;13.78;82.76;101604.09;5053314;28;20449;-73
2023/05/29 05:03:40;;;;;;;9.80;2.83;;;;;;;13.72;82.96;101599.81;5052850;28;21042;-73
2023/05/29 05:06:07;;;;;;;5.40;1.70;;;;;;;13.73;83.23;101601.47;5054365;28;20549;-73
2023/05/29 05:08:34;;;;;;;6.40;2.37;;;;;;;13.75;83.40;101599.22;5052875;28;21074;-73
2023/05/29 05:11:02;;;;;;;13.80;2.43;;;;;;;13.78;84.11;101606.00;5053165;28;20449;-73
2023/05/29 05:13:29;;;;;;;9.97;2.87;;;;;;;13.77;84.13;101599.75;5053141;28;20531;-73
2023/05/29 05:15:55;;;;;;;7.80;2.67;;;;;;;13.80;83.26;101604.59;5053105;28;20446;-73
2023/05/29 05:18:22;;;;;;;9.97;2.00;;;;;;;13.90;83.21;101609.09;5053037;28;20501;-73
2023/05/29 05:20:48;;;;;;;5.60;1.90;;;;;;;14.01;82.04;101602.34;5053119;28;20434;-72
2023/05/29 05:23:15;;;;;;;5.93;2.03;;;;;;;14.09;82.29;101603.56;5053094;28;20812;-75
2023/05/29 05:25:42;;;;;;;6.60;2.27;;;;;;;14.19;82.77;101608.84;5053017;28;20517;-75
2023/05/29 05:28:10;;;;;;;10.83;2.53;;;;;;;14.29;82.48;101602.38;5052624;28;20949;-75
2023/05/29 05:30:37;;;;;;;7.77;2.03;;;;;;;14.34;82.50;101600.41;5053034;28;20446;-75
2023/05/29 05:33:04;;;;;;;8.07;2.70;;;;;;;14.42;83.31;101606.25;5052925;28;20449;-75
2023/05/29 05:35:30;;;;;;;9.60;2.13;;;;;;;14.43;82.05;101610.56;5052946;28;20446;-75
2023/05/29 05:37:58;;;;;;;11.43;2.47;;;;;;;14.50;81.59;101608.31;5052526;28;20975;-74
2023/05/29 05:40:25;;;;;;;10.10;3.17;;;;;;;14.51;81.31;101610.72;5052875;28;20453;-75
2023/05/29 05:42:52;;;;;;;9.20;2.73;;;;;;;14.60;81.68;101616.28;5052951;28;20477;-74
2023/05/29 05:45:20;;;;;;;7.40;1.90;;;;;;;14.64;79.80;101609.91;5052741;28;20533;-75
2023/05/29 05:47:47;;;;;;;6.57;2.20;;;;;;;14.63;79.46;101611.03;5052472;28;20457;-75
2023/05/29 05:50:13;;;;;;;6.30;1.87;;;;;;;14.71;79.54;101612.25;5052805;28;20442;-75
2023/05/29 05:52:40;;;;;;;5.80;2.30;;;;;;;14.86;78.87;101619.31;5052796;28;20446;-75
2023/05/29 05:55:08;;;;;;;8.53;2.60;;;;;;;14.96;78.66;101615.56;5052424;28;20530;-72
2023/05/29 05:57:35;;;;;;;7.80;2.53;;;;;;;15.07;78.40;101616.97;5052343;28;20820;-72
2023/05/29 06:00:04;;;;;;;6.10;2.00;;;;;;;15.10;77.73;101619.09;5052793;28;20450;-72
2023/05/29 06:02:32;;;;;;;9.53;2.00;;;;;;;15.23;76.16;101626.44;5054521;28;20442;-71
2023/05/29 06:04:59;;;;;;;7.47;1.80;;;;;;;15.36;76.19;101625.59;5056483;28;20576;-75
2023/05/29 06:07:25;;;;;;;9.50;2.20;;;;;;;15.51;75.52;101627.16;5056060;28;20529;-74
2023/05/29 06:09:52;;;;;;;4.93;1.00;;;;;;;15.63;74.37;101630.16;5056471;28;20526;-71
2023/05/29 06:12:19;;;;;;;5.73;1.40;;;;;;;15.72;74.46;101629.47;5056371;28;20496;-71
2023/05/29 06:14:45;;;;;;;6.27;1.43;;;;;;;15.79;74.59;101633.34;5056385;28;20434;-70
2023/05/29 06:17:12;;;;;;;8.23;1.90;;;;;;;15.85;74.53;101639.53;5056312;28;20452;-72
2023/05/29 06:19:40;;;;;;;5.10;1.30;;;;;;;15.93;71.63;101636.00;5056184;28;20462;-75
2023/05/29 06:22:07;;;;;;;6.80;1.60;;;;;;;15.96;71.90;101642.78;5055799;28;20453;-75
2023/05/29 06:24:34;;;;;;;5.80;1.53;;;;;;;16.04;72.58;101640.13;5055884;28;20489;-75
2023/05/29 06:27:01;;;;;;;5.20;1.43;;;;;;;16.13;71.82;101642.91;5056158;28;20477;-74
2023/05/29 06:29:27;;;;;;;5.77;1.50;;;;;;;16.23;71.31;101645.38;5056031;28;20502;-74
2023/05/29 06:31:54;;;;;;;6.60;1.60;;;;;;;16.29;70.12;101652.34;5056017;28;20476;-73
2023/05/29 06:34:21;;;;;;;4.90;1.30;;;;;;;16.39;68.43;101654.78;5056081;28;20533;-74
2023/05/29 06:36:48;;;;;;;6.30;1.57;;;;;;;16.51;67.00;101658.84;5055684;28;20862;-74
2023/05/29 06:39:17;;;;;;;6.03;1.67;;;;;;;16.67;66.83;101662.00;5056124;28;21065;-72
2023/05/29 06:41:44;;;;;;;5.87;1.43;;;;;;;16.76;67.04;101666.41;5055912;28;20445;-74
2023/05/29 06:44:11;;;;;;;6.30;1.57;;;;;;;16.82;64.24;101667.06;5055719;28;20478;-72
2023/05/29 06:46:37;;;;;;;5.90;1.77;;;;;;;16.85;65.07;101671.91;5055400;28;20605;-72
2023/05/29 06:49:04;;;;;;;13.60;1.90;;;;;;;16.89;64.13;101668.22;5055343;28;20469;-71
2023/05/29 06:51:32;;;;;;;4.90;1.10;;;;;;;16.97;64.52;101660.38;5055605;28;20462;-72
2023/05/29 06:54:00;;;;;;;5.23;1.60;;;;;;;17.06;63.66;101663.94;5055557;28;20451;-72
2023/05/29 06:56:27;;;;;;;5.23;1.20;;;;;;;17.04;62.73;101666.16;5055258;28;21022;-74
2023/05/29 06:58:54;;;;;;;4.90;1.10;;;;;;;17.08;62.20;101664.41;5055477;28;20875;-71
2023/05/29 07:01:20;;;;;;;5.80;1.57;;;;;;;17.19;61.68;101673.16;5055513;28;20896;-72
2023/05/29 07:03:47;;;;;;;5.90;1.70;;;;;;;17.26;61.95;101666.06;5055383;28;20442;-73
2023/05/29 07:06:14;;;;;;;7.03;1.97;;;;;;;17.35;62.62;101666.91;5055243;28;20482;-73
2023/05/29 07:08:40;;;;;;;7.17;1.43;;;;;;;17.45;62.56;101670.47;5054943;28;20561;-74
2023/05/29 07:11:09;;;;;;;5.30;1.40;;;;;;;17.48;62.53;101670.59;5055301;28;20453;-76
2023/05/29 07:13:36;;;;;;;6.30;1.67;;;;;;;17.57;63.08;101668.66;5054304;28;20442;-72
2023/05/29 07:16:02;;;;;;;6.90;1.57;;;;;;;17.65;62.36;101678.81;5055202;28;20442;-71
2023/05/29 07:18:29;;;;;;;5.23;1.40;;;;;;;17.76;62.58;101675.81;5055121;28;20466;-72
2023/05/29 07:20:57;;;;;;;4.80;1.13;;;;;;;17.87;62.89;101680.63;5055098;28;20438;-71
2023/05/29 07:23:25;;;;;;;6.17;1.67;;;;;;;17.90;61.50;101674.50;5055023;28;20488;-72
2023/05/29 07:25:51;;;;;;;6.00;1.70;;;;;;;17.89;59.46;101680.31;5054586;28;20489;-72
2023/05/29 07:28:19;;;;;;;5.00;1.13;;;;;;;18.04;60.20;101679.00;5054956;28;20498;-72
2023/05/29 07:30:46;;;;;;;6.53;1.60;;;;;;;18.17;59.69;101678.03;5054943;28;20488;-70
2023/05/29 07:33:13;;;;;;;5.00;1.27;;;;;;;18.28;59.04;101679.31;5054591;28;21004;-71
2023/05/29 07:35:39;;;;;;;5.17;1.20;;;;;;;18.40;58.87;101684.91;5054851;28;20536;-72
2023/05/29 07:38:06;;;;;;;6.17;1.77;;;;;;;18.60;58.19;101679.84;5054694;28;20462;-71
2023/05/29 07:40:32;;;;;;;6.03;1.77;;;;;;;18.77;56.87;101684.47;5054411;28;20529;-71
2023/05/29 07:42:59;;;;;;;5.83;1.40;;;;;;;18.94;56.30;101683.59;5054681;28;20469;-71
2023/05/29 07:45:28;;;;;;;5.20;1.40;;;;;;;18.95;54.38;101686.03;5054445;28;20536;-72
2023/05/29 07:47:54;;;;;;;5.20;1.40;;;;;;;19.05;55.30;101691.13;5054498;28;20454;-71
2023/05/29 07:50:21;;;;;;;5.90;1.73;;;;;;;19.16;54.78;101694.28;5054224;28;20478;-72
2023/05/29 07:52:47;;;;;;;7.13;1.47;;;;;;;19.23;54.30;101691.03;5054545;28;20451;-71
2023/05/29 07:55:14;;;;;;;5.20;1.10;;;;;;;19.30;54.96;101692.13;5054465;28;20925;-71
2023/05/29 07:57:41;;;;;;;5.90;1.30;;;;;;;19.27;54.24;101695.53;5054284;28;20446;-72
2023/05/29 08:00:09;;;;;;;6.77;1.67;;;;;;;19.12;54.00;101701.59;5054340;28;20449;-71
2023/05/29 08:02:37;;;;;;;5.67;1.30;;;;;;;19.19;55.59;101695.59;5054054;28;20986;-71
2023/05/29 08:05:04;;;;;;;5.17;1.17;;;;;;;19.37;55.99;101706.13;5053968;28;20556;-71
2023/05/29 08:07:31;;;;;;;5.53;1.20;;;;;;;19.51;54.95;101697.63;5053870;28;20912;-71
2023/05/29 08:09:58;;;;;;;6.10;1.20;;;;;;;19.57;53.47;101703.75;5053947;28;20904;-71
2023/05/29 08:12:25;;;;;;;6.67;1.37;;;;;;;19.49;54.38;101699.91;5054179;28;20807;-71
2023/05/29 08:14:51;;;;;;;6.13;1.37;;;;;;;19.46;55.80;101694.28;5054090;28;20461;-72
2023/05/29 08:17:18;;;;;;;5.17;1.30;;;;;;;19.57;55.64;101695.50;5053750;28;20441;-71
2023/05/29 08:19:46;;;;;;;4.80;1.00;;;;;;;19.60;53.54;101692.06;5053924;28;20504;-71
2023/05/29 08:22:15;;;;;;;5.83;1.57;;;;;;;19.47;52.54;101693.94;5053583;28;20485;-71
2023/05/29 08:24:41;;;;;;;6.10;1.40;;;;;;;19.56;52.16;101691.13;5053538;28;20446;-71
2023/05/29 08:27:08;;;;;;;5.90;1.13;;;;;;;19.55;53.78;101684.84;5053183;28;20489;-72
2023/05/29 08:29:35;;;;;;;7.17;1.33;;;;;;;19.46;53.32;101686.84;5053744;28;20559;-71
2023/05/29 08:32:02;;;;;;;5.20;1.30;;;;;;;19.53;53.75;101686.31;5053755;28;20472;-71
2023/05/29 08:34:29;;;;;;;5.07;1.20;;;;;;;19.47;51.92;101690.38;5053730;28;20530;-72
2023/05/29 08:36:56;;;;;;;5.80;1.57;;;;;;;19.50;49.34;101686.97;5053678;28;20442;-72
2023/05/29 08:39:23;;;;;;;5.10;1.30;;;;;;;19.39;50.37;101695.63;5053248;28;20466;-72
2023/05/29 08:41:58;;;;;;;5.20;1.10;;;;;;;19.35;48.78;101686.44;5053563;28;20931;-71
2023/05/29 08:44:25;;;;;;;4.83;1.17;;;;;;;19.45;50.33;101684.44;5053208;28;20799;-71
2023/05/29 08:46:55;;;;;;;7.10;1.50;;;;;;;19.54;51.22;101682.44;5053349;28;20504;-71
2023/05/29 08:49:23;;;;;;;6.17;1.40;;;;;;;19.57;50.61;101690.00;5053139;28;20501;-71
2023/05/29 08:51:53;;;;;;;5.17;1.20;;;;;;;19.63;51.83;101688.69;5053439;28;20450;-71
2023/05/29 08:54:21;;;;;;;4.93;1.20;;;;;;;19.65;52.27;101678.94;5053266;28;20433;-71
2023/05/29 08:56:48;;;;;;;6.00;1.47;;;;;;;19.67;51.23;101689.63;5053393;28;20850;-71
2023/05/29 08:59:16;;;;;;;11.97;1.77;;;;;;;19.69;48.73;101678.28;5053222;28;20472;-71
2023/05/29 09:01:43;;;;;;;6.67;1.70;;;;;;;19.61;49.12;101683.53;5053067;28;20541;-71
2023/05/29 09:04:10;;;;;;;6.27;1.53;;;;;;;19.70;50.66;101680.72;5052994;28;21018;-71
2023/05/29 09:06:38;;;;;;;5.83;1.50;;;;;;;19.84;49.58;101684.00;5053209;28;20489;-71
2023/05/29 09:09:05;;;;;;;7.00;1.60;;;;;;;19.81;49.04;101676.41;5052835;28;20552;-71
2023/05/29 09:11:33;;;;;;;6.63;1.43;;;;;;;19.87;51.38;101674.25;5053167;28;20453;-71
2023/05/29 09:14:02;;;;;;;6.70;2.13;;;;;;;19.97;51.36;101679.34;5053181;28;20488;-71
2023/05/29 09:16:28;;;;;;;4.93;1.43;;;;;;;20.29;49.66;101679.69;5053145;28;20536;-71
2023/05/29 09:19:06;;;;;;;5.40;1.20;;;;;;;20.60;49.48;101691.00;5053075;28;20553;-71
2023/05/29 09:21:34;;;;;;;5.97;1.67;;;;;;;20.66;48.64;101695.13;5053144;28;20430;-71
2023/05/29 09:24:04;;;;;;;5.93;1.67;;;;;;;20.73;46.56;101700.09;5053066;28;20449;-71
2023/05/29 09:26:33;;;;;;;7.20;2.03;;;;;;;20.77;46.59;101706.50;5052691;28;21017;-71
2023/05/29 09:29:01;;;;;;;7.13;1.23;;;;;;;20.76;46.26;101693.91;5052648;28;20499;-71
2023/05/29 09:31:28;;;;;;;6.53;1.53;;;;;;;20.85;45.93;101694.59;5052733;28;20505;-70
2023/05/29 09:33:55;;;;;;;5.60;1.40;;;;;;;20.81;45.65;101703.88;5052641;28;20453;-72
2023/05/29 09:36:22;;;;;;;5.90;1.80;;;;;;;20.91;47.03;101711.69;5052695;28;20442;-71
2023/05/29 09:38:50;;;;;;;4.80;1.10;;;;;;;21.15;46.85;101717.19;5056975;28;20469;-71
2023/05/29 09:41:22;;;;;;;7.80;1.60;;;;;;;21.20;47.10;101705.13;5056667;28;20962;-71
2023/05/29 09:43:50;;;;;;;6.87;2.10;;;;;;;21.05;47.17;101700.31;5056711;28;20426;-72
2023/05/29 09:46:17;;;;;;;4.80;1.30;;;;;;;21.10;47.20;101694.56;5056513;28;20478;-71
2023/05/29 09:48:45;;;;;;;6.60;1.40;;;;;;;21.28;47.40;101704.19;5056740;28;20552;-71
2023/05/29 09:51:20;;;;;;;5.90;1.37;;;;;;;21.39;44.09;101710.88;5056782;28;20445;-72
2023/05/29 09:53:47;;;;;;;5.37;1.37;;;;;;;21.36;44.28;101700.53;5056859;28;20422;-71
2023/05/29 09:56:15;;;;;;;5.20;1.50;;;;;;;21.07;44.81;101709.03;5056719;28;20503;-71
2023/05/29 09:58:45;;;;;;;5.47;1.37;;;;;;;20.91;45.93;101686.91;5056259;28;20470;-71
2023/05/29 10:01:15;;;;;;;7.10;1.47;;;;;;;20.97;46.83;101693.78;5056309;28;20540;-71
2023/05/29 10:03:42;;;;;;;9.87;1.93;;;;;;;21.10;45.87;101686.31;5056581;28;20558;-71
2023/05/29 10:06:12;;;;;;;11.53;1.70;;;;;;;21.18;44.83;101690.91;5056469;28;20485;-72
2023/05/29 10:08:46;;;;;;;12.93;1.50;;;;;;;21.21;44.49;101687.47;5056155;28;20513;-71
2023/05/29 10:11:16;;;;;;;4.50;1.20;;;;;;;20.99;45.23;101685.97;5056499;28;20491;-71
2023/05/29 10:13:48;;;;;;;4.97;1.10;;;;;;;20.85;45.29;101691.84;5056347;28;20438;-71
2023/05/29 10:16:20;;;;;;;5.80;1.33;;;;;;;20.92;43.32;101694.00;5056396;28;20431;-72
2023/05/29 10:18:52;;;;;;;5.37;1.53;;;;;;;21.06;44.32;101679.88;5055951;28;20481;-71
2023/05/29 10:21:20;;;;;;;4.90;1.30;;;;;;;21.22;43.84;101677.22;5056026;28;20797;-71
2023/05/29 10:23:49;;;;;;;5.03;1.33;;;;;;;21.48;43.18;101685.16;5056218;28;20879;-71
2023/05/29 10:26:21;;;;;;;7.00;1.57;;;;;;;21.78;41.13;101685.59;5056056;28;20528;-71
2023/05/29 10:28:54;;;;;;;4.90;1.13;;;;;;;22.02;40.94;101693.81;5056064;28;20507;-71
2023/05/29 10:31:30;;;;;;;4.80;1.10;;;;;;;21.89;40.43;101689.50;5056019;28;20872;-72
2023/05/29 10:34:09;;;;;;;8.63;2.03;;;;;;;21.94;41.68;101686.47;5055669;28;20552;-70
2023/05/29 10:36:39;;;;;;;5.40;1.57;;;;;;;21.74;42.62;101690.25;5055970;28;20431;-70
2023/05/29 10:39:07;;;;;;;4.90;1.20;;;;;;;21.77;44.23;101687.56;5055811;28;20481;-70
2023/05/29 10:41:39;;;;;;;5.17;1.27;;;;;;;21.62;42.24;101691.06;5055833;28;20449;-70
2023/05/29 10:44:43;;;;;;;6.63;1.63;;;;;;;21.40;42.36;101681.38;5055863;28;20460;-70
2023/05/29 10:47:12;;;;;;;7.20;1.67;;;;;;;21.23;42.43;101685.16;5055789;28;20466;-72
2023/05/29 10:49:39;;;;;;;9.80;1.47;;;;;;;20.92;42.99;101686.53;5054590;28;20450;-70
2023/05/29 10:52:06;;;;;;;8.97;1.63;;;;;;;21.11;42.46;101687.91;5055816;28;20466;-70
2023/05/29 10:54:51;;;;;;;5.30;1.20;;;;;;;21.28;43.68;101681.34;5055273;28;20443;-71
2023/05/29 10:57:18;;;;;;;5.93;1.63;;;;;;;21.36;41.44;101683.22;5055630;28;20423;-69
2023/05/29 10:59:46;;;;;;;5.40;1.17;;;;;;;21.74;41.26;101670.94;5055488;28;20555;-72
2023/05/29 11:02:18;;;;;;;5.37;1.50;;;;;;;22.13;40.48;101670.09;5055232;28;21013;-72
2023/05/29 11:04:47;;;;;;;4.87;1.40;;;;;;;22.49;40.66;101673.78;5055180;28;20429;-73
2023/05/29 11:07:35;;;;;;;5.10;1.20;;;;;;;22.33;40.99;101676.53;5055329;28;20525;-71
2023/05/29 11:10:12;;;;;;;5.50;1.27;;;;;;;22.03;40.30;101678.03;5055105;28;20437;-71
2023/05/29 11:12:57;;;;;;;5.80;1.60;;;;;;;21.87;39.89;101675.25;5055052;28;20837;-71
2023/05/29 11:15:25;;;;;;;5.57;1.60;;;;;;;21.80;40.27;101681.34;5055269;28;20468;-71
2023/05/29 11:17:55;;;;;;;6.20;1.50;;;;;;;21.86;39.66;101677.19;5055029;28;20454;-71
2023/05/29 11:20:34;;;;;;;5.00;1.40;;;;;;;21.90;40.48;101677.28;5054795;28;20437;-71
2023/05/29 11:23:06;;;;;;;5.27;1.27;;;;;;;22.28;40.32;101668.50;5055114;28;20505;-71
2023/05/29 11:25:35;;;;;;;5.50;1.13;;;;;;;23.16;39.86;101671.09;5055078;28;20471;-72
2023/05/29 11:28:03;;;;;;;6.37;1.73;;;;;;;24.00;38.15;101664.16;5054877;28;20462;-71